sensor_id;sensor_type;location;lat;lon;timestamp;temperature;humidity
14359;DHT22;7263;49.418;11.064;2024-02-15T00:00:16;8.90;99.90
14359;DHT22;7263;49.418;11.064;2024-02-15T00:02:43;8.90;99.90
14359;DHT22;7263;49.418;11.064;2024-02-15T00:05:12;8.90;99.90
14359;DHT22;7263;49.418;11.064;2024-02-15T00:07:44;8.90;99.90
14359;DHT22;7263;49.418;11.064;2024-02-15T00:10:20;8.90;99.90
14359;DHT22;7263;49.418;11.064;2024-02-15T00:12:56;8.90;99.90
14359;DHT22;7263;49.418;11.064;2024-02-15T00:15:29;8.90;99.90
14359;DHT22;7263;49.418;11.064;2024-02-15T00:18:06;8.90;99.90
14359;DHT22;7263;49.418;11.064;2024-02-15T00:20:36;8.90;99.90
14359;DHT22;7263;49.418;11.064;2024-02-15T00:23:04;8.90;99.90
14359;DHT22;7263;49.418;11.064;2024-02-15T00:25:35;8.90;99.90
14359;DHT22;7263;49.418;11.064;2024-02-15T00:28:02;8.90;99.90
14359;DHT22;7263;49.418;11.064;2024-02-15T00:30:35;8.90;99.90
14359;DHT22;7263;49.418;11.064;2024-02-15T00:33:04;8.90;99.90
14359;DHT22;7263;49.418;11.064;2024-02-15T00:35:31;8.90;99.90
14359;DHT22;7263;49.418;11.064;2024-02-15T00:38:14;8.90;99.90
14359;DHT22;7263;49.418;11.064;2024-02-15T00:40:47;8.90;99.90
14359;DHT22;7263;49.418;11.064;2024-02-15T00:43:17;8.90;99.90
14359;DHT22;7263;49.418;11.064;2024-02-15T00:45:48;8.90;99.90
14359;DHT22;7263;49.418;11.064;2024-02-15T00:48:22;8.90;99.90
14359;DHT22;7263;49.418;11.064;2024-02-15T00:50:51;8.90;99.90
14359;DHT22;7263;49.418;11.064;2024-02-15T00:53:18;8.90;99.90
14359;DHT22;7263;49.418;11.064;2024-02-15T00:55:47;8.90;99.90
14359;DHT22;7263;49.418;11.064;2024-02-15T00:58:17;8.90;99.90
14359;DHT22;7263;49.418;11.064;2024-02-15T01:00:47;8.90;99.90
14359;DHT22;7263;49.418;11.064;2024-02-15T01:03:22;9.00;99.90
14359;DHT22;7263;49.418;11.064;2024-02-15T01:05:54;8.90;99.90
14359;DHT22;7263;49.418;11.064;2024-02-15T01:08:23;9.00;99.90
14359;DHT22;7263;49.418;11.064;2024-02-15T01:10:54;8.90;99.90
14359;DHT22;7263;49.418;11.064;2024-02-15T01:13:29;9.00;99.90
14359;DHT22;7263;49.418;11.064;2024-02-15T01:16:04;9.00;99.90
14359;DHT22;7263;49.418;11.064;2024-02-15T01:18:34;9.00;99.90
14359;DHT22;7263;49.418;11.064;2024-02-15T01:21:04;9.00;99.90
14359;DHT22;7263;49.418;11.064;2024-02-15T01:23:31;9.00;99.90
14359;DHT22;7263;49.418;11.064;2024-02-15T01:25:59;9.10;99.90
14359;DHT22;7263;49.418;11.064;2024-02-15T01:28:35;9.00;99.90
14359;DHT22;7263;49.418;11.064;2024-02-15T01:31:02;8.90;99.90
14359;DHT22;7263;49.418;11.064;2024-02-15T01:33:40;9.00;99.90
14359;DHT22;7263;49.418;11.064;2024-02-15T01:36:07;8.90;99.90
14359;DHT22;7263;49.418;11.064;2024-02-15T01:38:40;8.90;99.90
14359;DHT22;7263;49.418;11.064;2024-02-15T01:41:08;8.90;99.90
14359;DHT22;7263;49.418;11.064;2024-02-15T01:43:35;8.90;99.90
14359;DHT22;7263;49.418;11.064;2024-02-15T01:46:07;8.90;99.90
14359;DHT22;7263;49.418;11.064;2024-02-15T01:48:39;8.80;99.90
14359;DHT22;7263;49.418;11.064;2024-02-15T01:51:07;8.80;99.90
14359;DHT22;7263;49.418;11.064;2024-02-15T01:53:47;8.80;99.90
14359;DHT22;7263;49.418;11.064;2024-02-15T01:56:17;8.90;99.90
14359;DHT22;7263;49.418;11.064;2024-02-15T01:58:45;8.80;99.90
14359;DHT22;7263;49.418;11.064;2024-02-15T02:01:12;8.80;99.90
14359;DHT22;7263;49.418;11.064;2024-02-15T02:03:40;8.80;99.90
14359;DHT22;7263;49.418;11.064;2024-02-15T02:06:07;8.80;99.90
14359;DHT22;7263;49.418;11.064;2024-02-15T02:08:36;8.80;99.90
14359;DHT22;7263;49.418;11.064;2024-02-15T02:11:10;8.80;99.90
14359;DHT22;7263;49.418;11.064;2024-02-15T02:13:56;8.70;99.90
14359;DHT22;7263;49.418;11.064;2024-02-15T02:16:27;8.70;99.90
14359;DHT22;7263;49.418;11.064;2024-02-15T02:18:55;8.70;99.90
14359;DHT22;7263;49.418;11.064;2024-02-15T02:21:25;8.70;99.90
14359;DHT22;7263;49.418;11.064;2024-02-15T02:23:56;8.70;99.90
14359;DHT22;7263;49.418;11.064;2024-02-15T02:26:32;8.70;99.90
14359;DHT22;7263;49.418;11.064;2024-02-15T02:28:59;8.70;99.90
14359;DHT22;7263;49.418;11.064;2024-02-15T02:31:28;8.70;99.90
14359;DHT22;7263;49.418;11.064;2024-02-15T02:33:58;8.70;99.90
14359;DHT22;7263;49.418;11.064;2024-02-15T02:36:25;8.60;99.90
14359;DHT22;7263;49.418;11.064;2024-02-15T02:38:52;8.70;99.90
14359;DHT22;7263;49.418;11.064;2024-02-15T02:41:19;8.70;99.90
14359;DHT22;7263;49.418;11.064;2024-02-15T02:43:48;8.70;99.90
14359;DHT22;7263;49.418;11.064;2024-02-15T02:46:17;8.60;99.90
14359;DHT22;7263;49.418;11.064;2024-02-15T02:48:50;8.70;99.90
14359;DHT22;7263;49.418;11.064;2024-02-15T02:51:26;8.60;99.90
14359;DHT22;7263;49.418;11.064;2024-02-15T02:53:53;8.60;99.90
14359;DHT22;7263;49.418;11.064;2024-02-15T02:56:20;8.60;99.90
14359;DHT22;7263;49.418;11.064;2024-02-15T02:58:55;8.60;99.90
14359;DHT22;7263;49.418;11.064;2024-02-15T03:01:23;8.60;99.90
14359;DHT22;7263;49.418;11.064;2024-02-15T03:03:57;8.60;99.90
14359;DHT22;7263;49.418;11.064;2024-02-15T03:06:30;8.60;99.90
14359;DHT22;7263;49.418;11.064;2024-02-15T03:09:01;8.60;99.90
14359;DHT22;7263;49.418;11.064;2024-02-15T03:11:32;8.60;99.90
14359;DHT22;7263;49.418;11.064;2024-02-15T03:14:01;8.60;99.90
14359;DHT22;7263;49.418;11.064;2024-02-15T03:16:29;8.60;99.90
14359;DHT22;7263;49.418;11.064;2024-02-15T03:18:59;8.60;99.90
14359;DHT22;7263;49.418;11.064;2024-02-15T03:21:30;8.60;99.90
14359;DHT22;7263;49.418;11.064;2024-02-15T03:23:57;8.60;99.90
14359;DHT22;7263;49.418;11.064;2024-02-15T03:26:30;8.60;99.90
14359;DHT22;7263;49.418;11.064;2024-02-15T03:31:42;8.60;99.90
14359;DHT22;7263;49.418;11.064;2024-02-15T03:34:11;8.60;99.90
14359;DHT22;7263;49.418;11.064;2024-02-15T03:36:50;8.60;99.90
14359;DHT22;7263;49.418;11.064;2024-02-15T03:39:19;8.60;99.90
14359;DHT22;7263;49.418;11.064;2024-02-15T03:41:46;8.60;99.90
14359;DHT22;7263;49.418;11.064;2024-02-15T03:44:13;8.60;99.90
14359;DHT22;7263;49.418;11.064;2024-02-15T03:46:41;8.70;99.90
14359;DHT22;7263;49.418;11.064;2024-02-15T03:49:12;8.70;99.90
14359;DHT22;7263;49.418;11.064;2024-02-15T03:51:39;8.70;99.90
14359;DHT22;7263;49.418;11.064;2024-02-15T03:54:05;8.60;99.90
14359;DHT22;7263;49.418;11.064;2024-02-15T03:56:32;8.60;99.90
14359;DHT22;7263;49.418;11.064;2024-02-15T03:59:02;8.60;99.90
14359;DHT22;7263;49.418;11.064;2024-02-15T04:01:33;8.60;99.90
14359;DHT22;7263;49.418;11.064;2024-02-15T04:04:04;8.60;99.90
14359;DHT22;7263;49.418;11.064;2024-02-15T04:06:31;8.60;99.90
14359;DHT22;7263;49.418;11.064;2024-02-15T04:09:02;8.50;99.90
14359;DHT22;7263;49.418;11.064;2024-02-15T04:11:32;8.60;99.90
14359;DHT22;7263;49.418;11.064;2024-02-15T04:14:00;8.50;99.90
14359;DHT22;7263;49.418;11.064;2024-02-15T04:16:26;8.50;99.90
14359;DHT22;7263;49.418;11.064;2024-02-15T04:18:57;8.50;99.90
14359;DHT22;7263;49.418;11.064;2024-02-15T04:21:25;8.50;99.90
14359;DHT22;7263;49.418;11.064;2024-02-15T04:23:59;8.50;99.90
14359;DHT22;7263;49.418;11.064;2024-02-15T04:26:29;8.40;99.90
14359;DHT22;7263;49.418;11.064;2024-02-15T04:29:00;8.40;99.90
14359;DHT22;7263;49.418;11.064;2024-02-15T04:31:27;8.30;99.90
14359;DHT22;7263;49.418;11.064;2024-02-15T04:33:53;8.20;99.90
14359;DHT22;7263;49.418;11.064;2024-02-15T04:36:28;8.30;99.90
14359;DHT22;7263;49.418;11.064;2024-02-15T04:38:59;8.10;99.90
14359;DHT22;7263;49.418;11.064;2024-02-15T04:41:30;8.20;99.90
14359;DHT22;7263;49.418;11.064;2024-02-15T04:44:00;8.00;99.90
14359;DHT22;7263;49.418;11.064;2024-02-15T04:46:27;7.90;99.90
14359;DHT22;7263;49.418;11.064;2024-02-15T04:48:57;7.90;99.90
14359;DHT22;7263;49.418;11.064;2024-02-15T04:51:37;7.80;99.90
14359;DHT22;7263;49.418;11.064;2024-02-15T04:54:06;7.80;99.90
14359;DHT22;7263;49.418;11.064;2024-02-15T04:56:33;7.70;99.90
14359;DHT22;7263;49.418;11.064;2024-02-15T04:59:01;7.70;99.90
14359;DHT22;7263;49.418;11.064;2024-02-15T05:01:28;7.80;99.90
14359;DHT22;7263;49.418;11.064;2024-02-15T05:04:01;7.80;99.90
14359;DHT22;7263;49.418;11.064;2024-02-15T05:06:34;7.90;99.90
14359;DHT22;7263;49.418;11.064;2024-02-15T05:09:13;8.00;99.90
14359;DHT22;7263;49.418;11.064;2024-02-15T05:11:43;8.10;99.90
14359;DHT22;7263;49.418;11.064;2024-02-15T05:14:12;8.10;99.90
14359;DHT22;7263;49.418;11.064;2024-02-15T05:16:53;8.10;99.90
14359;DHT22;7263;49.418;11.064;2024-02-15T05:19:20;8.10;99.90
14359;DHT22;7263;49.418;11.064;2024-02-15T05:21:51;8.20;99.90
14359;DHT22;7263;49.418;11.064;2024-02-15T05:24:20;8.20;99.90
14359;DHT22;7263;49.418;11.064;2024-02-15T05:26:48;8.20;99.90
14359;DHT22;7263;49.418;11.064;2024-02-15T05:29:20;8.20;99.90
14359;DHT22;7263;49.418;11.064;2024-02-15T05:31:48;8.20;99.90
14359;DHT22;7263;49.418;11.064;2024-02-15T05:34:20;8.20;99.90
14359;DHT22;7263;49.418;11.064;2024-02-15T05:36:55;8.20;99.90
14359;DHT22;7263;49.418;11.064;2024-02-15T05:39:24;8.20;99.90
14359;DHT22;7263;49.418;11.064;2024-02-15T05:41:51;8.20;99.90
14359;DHT22;7263;49.418;11.064;2024-02-15T05:44:18;8.20;99.90
14359;DHT22;7263;49.418;11.064;2024-02-15T05:46:48;8.20;99.90
14359;DHT22;7263;49.418;11.064;2024-02-15T05:49:15;8.20;99.90
14359;DHT22;7263;49.418;11.064;2024-02-15T05:51:43;8.30;99.90
14359;DHT22;7263;49.418;11.064;2024-02-15T05:54:11;8.30;99.90
14359;DHT22;7263;49.418;11.064;2024-02-15T05:56:38;8.30;99.90
14359;DHT22;7263;49.418;11.064;2024-02-15T05:59:08;8.30;99.90
14359;DHT22;7263;49.418;11.064;2024-02-15T06:01:41;8.40;99.90
14359;DHT22;7263;49.418;11.064;2024-02-15T06:04:11;8.40;99.90
14359;DHT22;7263;49.418;11.064;2024-02-15T06:06:38;8.40;99.90
14359;DHT22;7263;49.418;11.064;2024-02-15T06:09:07;8.40;99.90
14359;DHT22;7263;49.418;11.064;2024-02-15T06:11:45;8.40;99.90
14359;DHT22;7263;49.418;11.064;2024-02-15T06:14:20;8.40;99.90
14359;DHT22;7263;49.418;11.064;2024-02-15T06:16:47;8.40;99.90
14359;DHT22;7263;49.418;11.064;2024-02-15T06:19:23;8.50;99.90
14359;DHT22;7263;49.418;11.064;2024-02-15T06:21:50;8.50;99.90
14359;DHT22;7263;49.418;11.064;2024-02-15T06:24:17;8.50;99.90
14359;DHT22;7263;49.418;11.064;2024-02-15T06:26:48;8.50;99.90
14359;DHT22;7263;49.418;11.064;2024-02-15T06:29:19;8.50;99.90
14359;DHT22;7263;49.418;11.064;2024-02-15T06:32:10;8.50;99.90
14359;DHT22;7263;49.418;11.064;2024-02-15T06:34:57;8.50;99.90
14359;DHT22;7263;49.418;11.064;2024-02-15T06:37:44;8.50;99.90
14359;DHT22;7263;49.418;11.064;2024-02-15T06:40:31;8.50;99.90
14359;DHT22;7263;49.418;11.064;2024-02-15T06:43:00;8.60;99.90
14359;DHT22;7263;49.418;11.064;2024-02-15T06:45:29;8.50;99.90
14359;DHT22;7263;49.418;11.064;2024-02-15T06:47:57;8.60;99.90
14359;DHT22;7263;49.418;11.064;2024-02-15T06:50:27;8.70;99.90
14359;DHT22;7263;49.418;11.064;2024-02-15T06:53:00;8.60;99.90
14359;DHT22;7263;49.418;11.064;2024-02-15T06:55:30;8.70;99.90
14359;DHT22;7263;49.418;11.064;2024-02-15T06:58:00;8.70;99.90
14359;DHT22;7263;49.418;11.064;2024-02-15T07:00:29;8.80;99.90
14359;DHT22;7263;49.418;11.064;2024-02-15T07:02:59;8.80;99.90
14359;DHT22;7263;49.418;11.064;2024-02-15T07:05:29;8.80;99.90
14359;DHT22;7263;49.418;11.064;2024-02-15T07:07:59;8.80;99.90
14359;DHT22;7263;49.418;11.064;2024-02-15T07:10:30;8.80;99.90
14359;DHT22;7263;49.418;11.064;2024-02-15T07:13:16;8.80;99.90
14359;DHT22;7263;49.418;11.064;2024-02-15T07:15:43;8.80;99.90
14359;DHT22;7263;49.418;11.064;2024-02-15T07:18:24;8.80;99.90
14359;DHT22;7263;49.418;11.064;2024-02-15T07:20:51;8.90;99.90
14359;DHT22;7263;49.418;11.064;2024-02-15T07:23:32;8.90;99.90
14359;DHT22;7263;49.418;11.064;2024-02-15T07:26:02;8.90;99.90
14359;DHT22;7263;49.418;11.064;2024-02-15T07:28:33;8.90;99.90
14359;DHT22;7263;49.418;11.064;2024-02-15T07:31:03;8.90;99.90
14359;DHT22;7263;49.418;11.064;2024-02-15T07:33:38;9.00;99.90
14359;DHT22;7263;49.418;11.064;2024-02-15T07:36:05;9.00;99.90
14359;DHT22;7263;49.418;11.064;2024-02-15T07:38:41;9.00;99.90
14359;DHT22;7263;49.418;11.064;2024-02-15T07:41:10;9.00;99.90
14359;DHT22;7263;49.418;11.064;2024-02-15T07:43:39;9.00;99.90
14359;DHT22;7263;49.418;11.064;2024-02-15T07:46:18;9.10;99.90
14359;DHT22;7263;49.418;11.064;2024-02-15T07:48:45;9.10;99.90
14359;DHT22;7263;49.418;11.064;2024-02-15T07:51:21;9.10;99.90
14359;DHT22;7263;49.418;11.064;2024-02-15T07:53:51;9.20;99.90
14359;DHT22;7263;49.418;11.064;2024-02-15T07:56:24;9.20;99.90
14359;DHT22;7263;49.418;11.064;2024-02-15T07:58:53;9.20;99.90
14359;DHT22;7263;49.418;11.064;2024-02-15T08:01:22;9.30;99.90
14359;DHT22;7263;49.418;11.064;2024-02-15T08:03:49;9.30;99.90
14359;DHT22;7263;49.418;11.064;2024-02-15T08:06:16;9.30;99.90
14359;DHT22;7263;49.418;11.064;2024-02-15T08:08:47;9.30;99.90
14359;DHT22;7263;49.418;11.064;2024-02-15T08:11:20;9.30;99.90
14359;DHT22;7263;49.418;11.064;2024-02-15T08:13:50;9.30;99.90
14359;DHT22;7263;49.418;11.064;2024-02-15T08:16:28;9.30;99.90
14359;DHT22;7263;49.418;11.064;2024-02-15T08:19:00;9.40;99.90
14359;DHT22;7263;49.418;11.064;2024-02-15T08:21:31;9.40;99.90
14359;DHT22;7263;49.418;11.064;2024-02-15T08:24:03;9.50;99.90
14359;DHT22;7263;49.418;11.064;2024-02-15T08:26:33;9.50;99.90
14359;DHT22;7263;49.418;11.064;2024-02-15T08:29:03;9.50;99.90
14359;DHT22;7263;49.418;11.064;2024-02-15T08:31:35;9.50;99.90
14359;DHT22;7263;49.418;11.064;2024-02-15T08:34:05;9.50;99.90
14359;DHT22;7263;49.418;11.064;2024-02-15T08:36:41;9.50;99.90
14359;DHT22;7263;49.418;11.064;2024-02-15T08:39:14;9.50;99.90
14359;DHT22;7263;49.418;11.064;2024-02-15T08:41:42;9.50;99.90
14359;DHT22;7263;49.418;11.064;2024-02-15T08:44:15;9.50;99.90
14359;DHT22;7263;49.418;11.064;2024-02-15T08:46:49;9.50;99.90
14359;DHT22;7263;49.418;11.064;2024-02-15T08:49:18;9.60;99.90
14359;DHT22;7263;49.418;11.064;2024-02-15T08:51:46;9.60;99.90
14359;DHT22;7263;49.418;11.064;2024-02-15T08:54:12;9.60;99.90
14359;DHT22;7263;49.418;11.064;2024-02-15T08:56:45;9.60;99.90
14359;DHT22;7263;49.418;11.064;2024-02-15T08:59:14;9.60;99.90
14359;DHT22;7263;49.418;11.064;2024-02-15T09:01:43;9.60;99.90
14359;DHT22;7263;49.418;11.064;2024-02-15T09:04:16;9.60;99.90
14359;DHT22;7263;49.418;11.064;2024-02-15T09:06:47;9.70;99.90
14359;DHT22;7263;49.418;11.064;2024-02-15T09:09:16;9.70;99.90
14359;DHT22;7263;49.418;11.064;2024-02-15T09:11:43;9.80;99.90
14359;DHT22;7263;49.418;11.064;2024-02-15T09:14:24;9.90;99.90
14359;DHT22;7263;49.418;11.064;2024-02-15T09:16:54;10.00;99.90
14359;DHT22;7263;49.418;11.064;2024-02-15T09:19:24;10.10;99.90
14359;DHT22;7263;49.418;11.064;2024-02-15T09:22:02;10.20;99.90
14359;DHT22;7263;49.418;11.064;2024-02-15T09:24:29;10.30;99.90
14359;DHT22;7263;49.418;11.064;2024-02-15T09:26:59;10.40;99.90
14359;DHT22;7263;49.418;11.064;2024-02-15T09:29:27;10.50;99.90
14359;DHT22;7263;49.418;11.064;2024-02-15T09:31:55;10.70;99.90
14359;DHT22;7263;49.418;11.064;2024-02-15T09:34:23;10.80;99.90
14359;DHT22;7263;49.418;11.064;2024-02-15T09:36:50;11.00;99.90
14359;DHT22;7263;49.418;11.064;2024-02-15T09:39:22;11.20;99.90
14359;DHT22;7263;49.418;11.064;2024-02-15T09:42:11;11.30;99.90
14359;DHT22;7263;49.418;11.064;2024-02-15T09:44:44;11.50;99.90
14359;DHT22;7263;49.418;11.064;2024-02-15T09:47:15;11.60;99.90
14359;DHT22;7263;49.418;11.064;2024-02-15T09:49:53;11.70;99.90
14359;DHT22;7263;49.418;11.064;2024-02-15T09:52:22;11.80;99.90
14359;DHT22;7263;49.418;11.064;2024-02-15T09:54:49;12.00;99.90
14359;DHT22;7263;49.418;11.064;2024-02-15T09:57:17;12.10;99.90
14359;DHT22;7263;49.418;11.064;2024-02-15T09:59:47;12.00;99.90
14359;DHT22;7263;49.418;11.064;2024-02-15T10:02:18;12.20;99.90
14359;DHT22;7263;49.418;11.064;2024-02-15T10:04:49;12.40;99.90
14359;DHT22;7263;49.418;11.064;2024-02-15T10:07:19;12.50;99.90
14359;DHT22;7263;49.418;11.064;2024-02-15T10:09:46;12.60;99.90
14359;DHT22;7263;49.418;11.064;2024-02-15T10:12:15;12.60;99.90
14359;DHT22;7263;49.418;11.064;2024-02-15T10:14:50;12.70;99.90
14359;DHT22;7263;49.418;11.064;2024-02-15T10:17:19;12.60;99.90
14359;DHT22;7263;49.418;11.064;2024-02-15T10:20:04;12.70;99.90
14359;DHT22;7263;49.418;11.064;2024-02-15T10:22:43;12.90;99.90
14359;DHT22;7263;49.418;11.064;2024-02-15T10:25:12;12.90;99.90
14359;DHT22;7263;49.418;11.064;2024-02-15T10:27:39;13.10;99.90
14359;DHT22;7263;49.418;11.064;2024-02-15T10:30:18;13.10;99.90
14359;DHT22;7263;49.418;11.064;2024-02-15T10:32:45;13.10;99.90
14359;DHT22;7263;49.418;11.064;2024-02-15T10:35:28;13.30;99.90
14359;DHT22;7263;49.418;11.064;2024-02-15T10:38:05;13.30;99.90
14359;DHT22;7263;49.418;11.064;2024-02-15T10:40:36;13.40;99.90
14359;DHT22;7263;49.418;11.064;2024-02-15T10:45:50;13.60;99.90
14359;DHT22;7263;49.418;11.064;2024-02-15T10:48:18;13.60;99.90
14359;DHT22;7263;49.418;11.064;2024-02-15T10:50:48;13.60;99.90
14359;DHT22;7263;49.418;11.064;2024-02-15T10:53:21;13.70;99.90
14359;DHT22;7263;49.418;11.064;2024-02-15T10:56:00;13.80;99.90
14359;DHT22;7263;49.418;11.064;2024-02-15T10:58:33;13.80;99.90
14359;DHT22;7263;49.418;11.064;2024-02-15T11:01:06;14.00;99.90
14359;DHT22;7263;49.418;11.064;2024-02-15T11:03:50;14.10;99.90
14359;DHT22;7263;49.418;11.064;2024-02-15T11:06:27;14.30;99.90
14359;DHT22;7263;49.418;11.064;2024-02-15T11:08:57;14.50;99.90
14359;DHT22;7263;49.418;11.064;2024-02-15T11:11:25;14.50;99.90
14359;DHT22;7263;49.418;11.064;2024-02-15T11:14:25;14.60;99.90
14359;DHT22;7263;49.418;11.064;2024-02-15T11:17:09;14.80;99.90
14359;DHT22;7263;49.418;11.064;2024-02-15T11:19:43;15.30;99.90
14359;DHT22;7263;49.418;11.064;2024-02-15T11:22:17;16.00;99.90
14359;DHT22;7263;49.418;11.064;2024-02-15T11:24:53;16.70;99.90
14359;DHT22;7263;49.418;11.064;2024-02-15T11:27:27;17.30;99.90
14359;DHT22;7263;49.418;11.064;2024-02-15T11:30:03;17.70;99.90
14359;DHT22;7263;49.418;11.064;2024-02-15T11:32:39;17.90;99.90
14359;DHT22;7263;49.418;11.064;2024-02-15T11:35:09;17.70;99.90
14359;DHT22;7263;49.418;11.064;2024-02-15T11:37:59;17.70;99.90
14359;DHT22;7263;49.418;11.064;2024-02-15T11:41:03;18.00;99.90
14359;DHT22;7263;49.418;11.064;2024-02-15T11:43:51;18.20;99.90
14359;DHT22;7263;49.418;11.064;2024-02-15T11:46:32;18.10;99.90
14359;DHT22;7263;49.418;11.064;2024-02-15T11:49:00;17.70;99.90
14359;DHT22;7263;49.418;11.064;2024-02-15T11:51:38;17.40;99.90
14359;DHT22;7263;49.418;11.064;2024-02-15T11:54:20;17.40;99.90
14359;DHT22;7263;49.418;11.064;2024-02-15T11:57:09;17.60;99.90
14359;DHT22;7263;49.418;11.064;2024-02-15T11:59:42;17.90;99.90
14359;DHT22;7263;49.418;11.064;2024-02-15T12:02:21;18.20;99.90
14359;DHT22;7263;49.418;11.064;2024-02-15T12:05:06;18.70;99.90
14359;DHT22;7263;49.418;11.064;2024-02-15T12:07:50;19.00;99.90
14359;DHT22;7263;49.418;11.064;2024-02-15T12:10:36;19.20;99.90
14359;DHT22;7263;49.418;11.064;2024-02-15T12:13:25;19.20;99.90
14359;DHT22;7263;49.418;11.064;2024-02-15T12:16:10;19.20;99.90
14359;DHT22;7263;49.418;11.064;2024-02-15T12:18:59;19.00;99.90
14359;DHT22;7263;49.418;11.064;2024-02-15T12:21:29;18.90;99.90
14359;DHT22;7263;49.418;11.064;2024-02-15T12:23:58;18.90;99.90
14359;DHT22;7263;49.418;11.064;2024-02-15T12:26:27;18.80;99.90
14359;DHT22;7263;49.418;11.064;2024-02-15T12:28:56;18.80;99.90
14359;DHT22;7263;49.418;11.064;2024-02-15T12:31:24;18.90;99.90
14359;DHT22;7263;49.418;11.064;2024-02-15T12:34:00;18.90;99.90
14359;DHT22;7263;49.418;11.064;2024-02-15T12:36:35;18.70;99.90
14359;DHT22;7263;49.418;11.064;2024-02-15T12:39:06;18.40;99.90
14359;DHT22;7263;49.418;11.064;2024-02-15T12:41:41;18.20;99.90
14359;DHT22;7263;49.418;11.064;2024-02-15T12:44:19;17.90;99.90
14359;DHT22;7263;49.418;11.064;2024-02-15T12:46:56;17.70;99.90
14359;DHT22;7263;49.418;11.064;2024-02-15T12:49:29;17.50;99.90
14359;DHT22;7263;49.418;11.064;2024-02-15T12:55:16;17.10;99.90
14359;DHT22;7263;49.418;11.064;2024-02-15T12:57:48;16.80;99.90
14359;DHT22;7263;49.418;11.064;2024-02-15T13:00:20;16.60;99.90
14359;DHT22;7263;49.418;11.064;2024-02-15T13:02:51;16.40;99.90
14359;DHT22;7263;49.418;11.064;2024-02-15T13:05:19;16.30;99.90
14359;DHT22;7263;49.418;11.064;2024-02-15T13:07:50;16.30;99.90
14359;DHT22;7263;49.418;11.064;2024-02-15T13:10:21;16.20;99.90
14359;DHT22;7263;49.418;11.064;2024-02-15T13:12:52;16.10;99.90
14359;DHT22;7263;49.418;11.064;2024-02-15T13:15:25;16.20;99.90
14359;DHT22;7263;49.418;11.064;2024-02-15T13:17:58;16.10;99.90
14359;DHT22;7263;49.418;11.064;2024-02-15T13:20:32;15.90;99.90
14359;DHT22;7263;49.418;11.064;2024-02-15T13:23:01;16.00;99.90
14359;DHT22;7263;49.418;11.064;2024-02-15T13:25:33;16.00;99.90
14359;DHT22;7263;49.418;11.064;2024-02-15T13:28:15;16.00;99.90
14359;DHT22;7263;49.418;11.064;2024-02-15T13:30:48;16.00;99.90
14359;DHT22;7263;49.418;11.064;2024-02-15T13:33:17;16.00;99.90
14359;DHT22;7263;49.418;11.064;2024-02-15T13:35:52;16.00;99.90
14359;DHT22;7263;49.418;11.064;2024-02-15T13:38:26;16.00;99.90
14359;DHT22;7263;49.418;11.064;2024-02-15T13:40:55;16.10;99.90
14359;DHT22;7263;49.418;11.064;2024-02-15T13:43:26;16.00;99.90
14359;DHT22;7263;49.418;11.064;2024-02-15T13:46:00;15.90;99.90
14359;DHT22;7263;49.418;11.064;2024-02-15T13:48:35;15.90;99.90
14359;DHT22;7263;49.418;11.064;2024-02-15T13:51:01;15.80;99.90
14359;DHT22;7263;49.418;11.064;2024-02-15T13:53:37;15.80;99.90
14359;DHT22;7263;49.418;11.064;2024-02-15T13:56:07;15.70;99.90
14359;DHT22;7263;49.418;11.064;2024-02-15T13:58:36;15.70;99.90
14359;DHT22;7263;49.418;11.064;2024-02-15T14:01:03;15.70;99.90
14359;DHT22;7263;49.418;11.064;2024-02-15T14:03:30;15.60;99.90
14359;DHT22;7263;49.418;11.064;2024-02-15T14:05:59;15.60;99.90
14359;DHT22;7263;49.418;11.064;2024-02-15T14:08:28;15.60;99.90
14359;DHT22;7263;49.418;11.064;2024-02-15T14:11:02;15.60;99.90
14359;DHT22;7263;49.418;11.064;2024-02-15T14:13:38;15.70;99.90
14359;DHT22;7263;49.418;11.064;2024-02-15T14:16:14;15.70;99.90
14359;DHT22;7263;49.418;11.064;2024-02-15T14:18:45;15.70;99.90
14359;DHT22;7263;49.418;11.064;2024-02-15T14:21:15;15.70;99.90
14359;DHT22;7263;49.418;11.064;2024-02-15T14:23:44;15.70;99.90
14359;DHT22;7263;49.418;11.064;2024-02-15T14:26:16;15.60;99.90
14359;DHT22;7263;49.418;11.064;2024-02-15T14:28:52;15.70;99.90
14359;DHT22;7263;49.418;11.064;2024-02-15T14:31:18;15.60;99.90
14359;DHT22;7263;49.418;11.064;2024-02-15T14:34:06;15.60;99.90
14359;DHT22;7263;49.418;11.064;2024-02-15T14:36:38;15.60;99.90
14359;DHT22;7263;49.418;11.064;2024-02-15T14:39:05;15.60;99.90
14359;DHT22;7263;49.418;11.064;2024-02-15T14:41:40;15.60;99.90
14359;DHT22;7263;49.418;11.064;2024-02-15T14:44:12;14.30;99.90
14359;DHT22;7263;49.418;11.064;2024-02-15T14:46:44;15.70;99.90
14359;DHT22;7263;49.418;11.064;2024-02-15T14:49:12;15.60;99.90
14359;DHT22;7263;49.418;11.064;2024-02-15T14:51:38;15.60;99.90
14359;DHT22;7263;49.418;11.064;2024-02-15T14:54:08;15.60;99.90
14359;DHT22;7263;49.418;11.064;2024-02-15T14:56:38;15.50;99.90
14359;DHT22;7263;49.418;11.064;2024-02-15T14:59:05;15.50;99.90
14359;DHT22;7263;49.418;11.064;2024-02-15T15:01:43;15.40;99.90
14359;DHT22;7263;49.418;11.064;2024-02-15T15:04:13;15.40;99.90
14359;DHT22;7263;49.418;11.064;2024-02-15T15:06:45;15.40;99.90
14359;DHT22;7263;49.418;11.064;2024-02-15T15:09:36;15.40;99.90
14359;DHT22;7263;49.418;11.064;2024-02-15T15:12:37;15.40;99.90
14359;DHT22;7263;49.418;11.064;2024-02-15T15:15:11;15.50;99.90
14359;DHT22;7263;49.418;11.064;2024-02-15T15:17:41;15.50;99.90
14359;DHT22;7263;49.418;11.064;2024-02-15T15:20:09;15.50;99.90
14359;DHT22;7263;49.418;11.064;2024-02-15T15:22:42;15.40;99.90
14359;DHT22;7263;49.418;11.064;2024-02-15T15:25:09;15.30;99.90
14359;DHT22;7263;49.418;11.064;2024-02-15T15:27:42;15.20;99.90
14359;DHT22;7263;49.418;11.064;2024-02-15T15:30:18;15.20;99.90
14359;DHT22;7263;49.418;11.064;2024-02-15T15:32:47;15.10;99.90
14359;DHT22;7263;49.418;11.064;2024-02-15T15:35:14;15.00;99.90
14359;DHT22;7263;49.418;11.064;2024-02-15T15:37:43;14.90;99.90
14359;DHT22;7263;49.418;11.064;2024-02-15T15:40:11;14.90;99.90
14359;DHT22;7263;49.418;11.064;2024-02-15T15:42:39;14.80;99.90
14359;DHT22;7263;49.418;11.064;2024-02-15T15:45:14;14.80;99.90
14359;DHT22;7263;49.418;11.064;2024-02-15T15:47:41;14.70;99.90
14359;DHT22;7263;49.418;11.064;2024-02-15T15:50:10;14.70;99.90
14359;DHT22;7263;49.418;11.064;2024-02-15T15:52:37;14.70;99.90
14359;DHT22;7263;49.418;11.064;2024-02-15T15:55:08;14.50;99.90
14359;DHT22;7263;49.418;11.064;2024-02-15T15:57:40;14.60;99.90
14359;DHT22;7263;49.418;11.064;2024-02-15T16:00:13;14.50;99.90
14359;DHT22;7263;49.418;11.064;2024-02-15T16:02:45;14.50;99.90
14359;DHT22;7263;49.418;11.064;2024-02-15T16:05:13;14.30;99.90
14359;DHT22;7263;49.418;11.064;2024-02-15T16:07:42;14.30;99.90
14359;DHT22;7263;49.418;11.064;2024-02-15T16:10:16;14.30;99.90
14359;DHT22;7263;49.418;11.064;2024-02-15T16:12:43;14.20;99.90
14359;DHT22;7263;49.418;11.064;2024-02-15T16:15:19;14.20;99.90
14359;DHT22;7263;49.418;11.064;2024-02-15T16:17:46;14.10;99.90